sensor_id;sensor_type;location;lat;lon;timestamp;pressure;altitude;pressure_sealevel;temperature;humidity
12073;BME280;6098;49.004;8.372;2023-01-29T00:10:12;101664.59;;;2.13;63.59
12073;BME280;6098;49.004;8.372;2023-01-29T00:25:02;101664.81;;;2.00;63.88
12073;BME280;6098;49.004;8.372;2023-01-29T00:39:51;101668.33;;;2.02;63.94
12073;BME280;6098;49.004;8.372;2023-01-29T00:54:42;101657.48;;;1.80;64.26
12073;BME280;6098;49.004;8.372;2023-01-29T01:09:35;101669.02;;;1.92;64.38
12073;BME280;6098;49.004;8.372;2023-01-29T01:24:38;101671.59;;;1.89;64.67
12073;BME280;6098;49.004;8.372;2023-01-29T01:39:28;101681.63;;;1.90;64.87
12073;BME280;6098;49.004;8.372;2023-01-29T01:54:24;101663.66;;;1.60;65.87
12073;BME280;6098;49.004;8.372;2023-01-29T02:09:18;101659.48;;;1.69;65.75
12073;BME280;6098;49.004;8.372;2023-01-29T02:24:46;101667.94;;;1.55;66.30
12073;BME280;6098;49.004;8.372;2023-01-29T02:39:38;101661.41;;;1.55;66.11
12073;BME280;6098;49.004;8.372;2023-01-29T02:54:30;101650.77;;;1.44;66.13
12073;BME280;6098;49.004;8.372;2023-01-29T03:09:19;101648.55;;;1.42;66.12
12073;BME280;6098;49.004;8.372;2023-01-29T03:24:07;101644.63;;;1.43;66.07
12073;BME280;6098;49.004;8.372;2023-01-29T03:39:19;101655.55;;;1.45;66.28
12073;BME280;6098;49.004;8.372;2023-01-29T03:54:20;101645.05;;;1.42;66.03
12073;BME280;6098;49.004;8.372;2023-01-29T04:09:18;101658.16;;;1.45;65.94
12073;BME280;6098;49.004;8.372;2023-01-29T04:24:12;101653.87;;;1.48;65.92
12073;BME280;6098;49.004;8.372;2023-01-29T04:39:23;101665.34;;;1.32;66.30
12073;BME280;6098;49.004;8.372;2023-01-29T05:09:10;101672.88;;;1.39;66.66
12073;BME280;6098;49.004;8.372;2023-01-29T05:38:58;101629.28;;;1.37;66.16
12073;BME280;6098;49.004;8.372;2023-01-29T05:53:49;101624.62;;;1.43;66.31
12073;BME280;6098;49.004;8.372;2023-01-29T06:08:39;101657.60;;;1.38;66.47
12073;BME280;6098;49.004;8.372;2023-01-29T06:23:29;101663.86;;;1.24;66.70
12073;BME280;6098;49.004;8.372;2023-01-29T06:38:18;101652.60;;;1.27;66.67
12073;BME280;6098;49.004;8.372;2023-01-29T06:53:08;101649.98;;;1.27;66.91
12073;BME280;6098;49.004;8.372;2023-01-29T07:07:58;101656.39;;;1.21;67.53
12073;BME280;6098;49.004;8.372;2023-01-29T07:22:49;101664.37;;;1.28;67.09
12073;BME280;6098;49.004;8.372;2023-01-29T07:37:39;101665.05;;;1.39;66.80
12073;BME280;6098;49.004;8.372;2023-01-29T07:52:29;101695.30;;;1.51;66.77
12073;BME280;6098;49.004;8.372;2023-01-29T08:07:19;101702.05;;;1.62;66.34
12073;BME280;6098;49.004;8.372;2023-01-29T08:22:09;101710.27;;;1.59;65.37
12073;BME280;6098;49.004;8.372;2023-01-29T08:36:58;101725.16;;;1.63;65.26
12073;BME280;6098;49.004;8.372;2023-01-29T08:51:47;101722.84;;;1.56;64.83
12073;BME280;6098;49.004;8.372;2023-01-29T09:06:37;101711.03;;;1.76;64.99
12073;BME280;6098;49.004;8.372;2023-01-29T09:21:27;101733.02;;;1.88;63.68
12073;BME280;6098;49.004;8.372;2023-01-29T09:36:17;101689.55;;;1.94;62.39
12073;BME280;6098;49.004;8.372;2023-01-29T09:51:11;101660.98;;;2.05;62.68
12073;BME280;6098;49.004;8.372;2023-01-29T10:36:13;101687.03;;;2.55;60.98
12073;BME280;6098;49.004;8.372;2023-01-29T11:06:32;101669.00;;;2.76;60.57
12073;BME280;6098;49.004;8.372;2023-01-29T11:21:52;101638.67;;;2.93;60.58
12073;BME280;6098;49.004;8.372;2023-01-29T11:36:45;101619.19;;;3.06;59.68
12073;BME280;6098;49.004;8.372;2023-01-29T11:51:36;101599.69;;;3.20;59.66
12073;BME280;6098;49.004;8.372;2023-01-29T12:21:32;101538.37;;;4.09;57.90
12073;BME280;6098;49.004;8.372;2023-01-29T12:51:10;101479.52;;;4.49;55.76
12073;BME280;6098;49.004;8.372;2023-01-29T13:06:01;101457.22;;;4.62;55.77
12073;BME280;6098;49.004;8.372;2023-01-29T13:20:50;101451.61;;;4.95;55.19
12073;BME280;6098;49.004;8.372;2023-01-29T13:35:40;101446.78;;;4.91;54.71
12073;BME280;6098;49.004;8.372;2023-01-29T13:50:36;101448.50;;;4.68;55.23
12073;BME280;6098;49.004;8.372;2023-01-29T14:20:20;101423.53;;;4.53;55.68
12073;BME280;6098;49.004;8.372;2023-01-29T15:05:29;101411.60;;;4.21;58.13
12073;BME280;6098;49.004;8.372;2023-01-29T15:35:28;101418.56;;;4.07;59.62
12073;BME280;6098;49.004;8.372;2023-01-29T15:50:20;101406.70;;;3.93;60.10
12073;BME280;6098;49.004;8.372;2023-01-29T16:05:13;101402.22;;;3.76;60.84
12073;BME280;6098;49.004;8.372;2023-01-29T16:20:06;101416.55;;;3.53;62.05
12073;BME280;6098;49.004;8.372;2023-01-29T16:34:55;101423.39;;;3.32;62.38
12073;BME280;6098;49.004;8.372;2023-01-29T16:49:44;101414.51;;;3.16;62.87
12073;BME280;6098;49.004;8.372;2023-01-29T17:04:33;101405.64;;;2.97;64.02
12073;BME280;6098;49.004;8.372;2023-01-29T17:19:22;101401.11;;;2.77;65.26
12073;BME280;6098;49.004;8.372;2023-01-29T17:34:12;101394.80;;;2.58;66.92
12073;BME280;6098;49.004;8.372;2023-01-29T17:49:02;101400.28;;;2.38;68.26
12073;BME280;6098;49.004;8.372;2023-01-29T18:03:51;101415.83;;;2.26;69.92
12073;BME280;6098;49.004;8.372;2023-01-29T18:18:41;101406.09;;;2.13;70.86
12073;BME280;6098;49.004;8.372;2023-01-29T18:33:31;101411.18;;;2.02;71.05
12073;BME280;6098;49.004;8.372;2023-01-29T18:48:20;101421.48;;;1.89;71.31
12073;BME280;6098;49.004;8.372;2023-01-29T19:03:09;101434.48;;;1.83;71.45
12073;BME280;6098;49.004;8.372;2023-01-29T19:18:00;101429.99;;;1.73;72.08
12073;BME280;6098;49.004;8.372;2023-01-29T19:32:49;101419.87;;;1.66;72.53
12073;BME280;6098;49.004;8.372;2023-01-29T19:47:39;101409.70;;;1.55;73.31
12073;BME280;6098;49.004;8.372;2023-01-29T20:02:28;101407.57;;;1.58;73.73
12073;BME280;6098;49.004;8.372;2023-01-29T20:17:17;101401.75;;;1.48;73.85
12073;BME280;6098;49.004;8.372;2023-01-29T20:32:07;101395.53;;;1.39;74.33
12073;BME280;6098;49.004;8.372;2023-01-29T20:46:57;101383.56;;;1.24;75.36
12073;BME280;6098;49.004;8.372;2023-01-29T21:01:47;101383.16;;;1.26;75.77
12073;BME280;6098;49.004;8.372;2023-01-29T21:16:36;101373.55;;;1.25;76.02
12073;BME280;6098;49.004;8.372;2023-01-29T21:31:26;101366.98;;;1.22;76.26
12073;BME280;6098;49.004;8.372;2023-01-29T21:46:15;101374.69;;;1.13;76.48
12073;BME280;6098;49.004;8.372;2023-01-29T22:01:08;101368.57;;;1.11;76.75
12073;BME280;6098;49.004;8.372;2023-01-29T22:15:58;101358.50;;;1.08;77.15
12073;BME280;6098;49.004;8.372;2023-01-29T22:30:48;101337.13;;;1.05;77.57
12073;BME280;6098;49.004;8.372;2023-01-29T22:45:37;101294.54;;;1.08;78.27
12073;BME280;6098;49.004;8.372;2023-01-29T23:00:27;101282.31;;;1.05;78.66
12073;BME280;6098;49.004;8.372;2023-01-29T23:15:16;101263.22;;;1.07;78.79
12073;BME280;6098;49.004;8.372;2023-01-29T23:30:07;101262.34;;;1.07;78.99
12073;BME280;6098;49.004;8.372;2023-01-29T23:44:57;101225.27;;;1.02;78.86
12073;BME280;6098;49.004;8.372;2023-01-29T23:59:47;101219.68;;;1.06;78.12
